sensor_id;sensor_type;location;lat;lon;timestamp;pressure;altitude;pressure_sealevel;temperature;humidity
17521;BME280;8878;-33.370;-70.552;2022-12-20T00:02:16;92086.00;;;26.51;32.43
17521;BME280;8878;-33.370;-70.552;2022-12-20T00:04:45;92098.50;;;25.87;33.25
17521;BME280;8878;-33.370;-70.552;2022-12-20T00:07:15;92092.75;;;25.89;33.56
17521;BME280;8878;-33.370;-70.552;2022-12-20T00:09:44;92102.66;;;25.81;33.47
17521;BME280;8878;-33.370;-70.552;2022-12-20T00:12:14;92101.41;;;25.75;33.71
17521;BME280;8878;-33.370;-70.552;2022-12-20T00:14:44;92100.09;;;25.46;34.25
17521;BME280;8878;-33.370;-70.552;2022-12-20T00:17:16;92097.25;;;25.58;33.49
17521;BME280;8878;-33.370;-70.552;2022-12-20T00:19:45;92104.97;;;25.18;33.77
17521;BME280;8878;-33.370;-70.552;2022-12-20T00:22:14;92111.28;;;25.06;34.21
17521;BME280;8878;-33.370;-70.552;2022-12-20T00:24:44;92103.88;;;25.22;33.84
17521;BME280;8878;-33.370;-70.552;2022-12-20T00:27:13;92116.88;;;24.78;34.74
17521;BME280;8878;-33.370;-70.552;2022-12-20T00:29:43;92122.91;;;25.29;34.37
17521;BME280;8878;-33.370;-70.552;2022-12-20T00:32:12;92110.03;;;25.61;33.89
17521;BME280;8878;-33.370;-70.552;2022-12-20T00:34:43;92121.41;;;25.70;33.14
17521;BME280;8878;-33.370;-70.552;2022-12-20T00:37:14;92118.63;;;26.12;33.29
17521;BME280;8878;-33.370;-70.552;2022-12-20T00:39:43;92109.06;;;26.19;33.34
17521;BME280;8878;-33.370;-70.552;2022-12-20T00:42:12;92118.38;;;26.21;33.04
17521;BME280;8878;-33.370;-70.552;2022-12-20T00:44:42;92118.94;;;26.30;32.95
17521;BME280;8878;-33.370;-70.552;2022-12-20T00:47:11;92123.63;;;25.88;33.12
17521;BME280;8878;-33.370;-70.552;2022-12-20T00:49:42;92133.16;;;25.82;33.34
17521;BME280;8878;-33.370;-70.552;2022-12-20T00:52:12;92122.34;;;25.59;33.40
17521;BME280;8878;-33.370;-70.552;2022-12-20T00:54:42;92136.53;;;25.75;33.62
17521;BME280;8878;-33.370;-70.552;2022-12-20T00:57:11;92131.56;;;25.77;33.57
17521;BME280;8878;-33.370;-70.552;2022-12-20T00:59:41;92133.78;;;25.52;34.29
17521;BME280;8878;-33.370;-70.552;2022-12-20T01:02:11;92142.50;;;25.65;34.22
17521;BME280;8878;-33.370;-70.552;2022-12-20T01:04:42;92143.44;;;25.53;34.15
17521;BME280;8878;-33.370;-70.552;2022-12-20T01:07:12;92154.84;;;25.62;33.68
17521;BME280;8878;-33.370;-70.552;2022-12-20T01:09:41;92156.09;;;25.49;34.10
17521;BME280;8878;-33.370;-70.552;2022-12-20T01:12:11;92152.63;;;25.68;33.82
17521;BME280;8878;-33.370;-70.552;2022-12-20T01:14:40;92153.34;;;25.26;34.67
17521;BME280;8878;-33.370;-70.552;2022-12-20T01:17:09;92159.47;;;24.88;34.47
17521;BME280;8878;-33.370;-70.552;2022-12-20T01:19:39;92162.38;;;25.15;34.14
17521;BME280;8878;-33.370;-70.552;2022-12-20T01:22:10;92162.94;;;25.24;34.14
17521;BME280;8878;-33.370;-70.552;2022-12-20T01:24:40;92162.09;;;25.01;34.00
17521;BME280;8878;-33.370;-70.552;2022-12-20T01:27:09;92164.84;;;25.23;34.65
17521;BME280;8878;-33.370;-70.552;2022-12-20T01:29:38;92167.56;;;25.43;34.83
17521;BME280;8878;-33.370;-70.552;2022-12-20T01:32:08;92177.69;;;25.30;34.93
17521;BME280;8878;-33.370;-70.552;2022-12-20T01:34:37;92166.78;;;25.42;34.28
17521;BME280;8878;-33.370;-70.552;2022-12-20T01:37:07;92171.53;;;25.49;34.00
17521;BME280;8878;-33.370;-70.552;2022-12-20T01:39:38;92165.56;;;25.40;34.13
17521;BME280;8878;-33.370;-70.552;2022-12-20T01:42:13;92172.03;;;25.35;34.02
17521;BME280;8878;-33.370;-70.552;2022-12-20T01:44:55;92176.63;;;24.96;34.32
17521;BME280;8878;-33.370;-70.552;2022-12-20T01:47:25;92175.44;;;25.13;34.99
17521;BME280;8878;-33.370;-70.552;2022-12-20T01:49:58;92180.19;;;25.19;34.66
17521;BME280;8878;-33.370;-70.552;2022-12-20T01:52:33;92180.09;;;24.96;36.67
17521;BME280;8878;-33.370;-70.552;2022-12-20T01:55:10;92178.88;;;24.94;38.11
17521;BME280;8878;-33.370;-70.552;2022-12-20T01:57:43;92184.09;;;24.87;37.03
17521;BME280;8878;-33.370;-70.552;2022-12-20T02:00:15;92182.75;;;24.77;36.91
17521;BME280;8878;-33.370;-70.552;2022-12-20T02:02:48;92187.06;;;24.82;37.27
17521;BME280;8878;-33.370;-70.552;2022-12-20T02:05:19;92191.53;;;24.74;37.36
17521;BME280;8878;-33.370;-70.552;2022-12-20T02:07:51;92192.41;;;24.78;36.61
17521;BME280;8878;-33.370;-70.552;2022-12-20T02:10:27;92205.81;;;24.75;36.97
17521;BME280;8878;-33.370;-70.552;2022-12-20T02:13:03;92197.81;;;24.78;36.42
17521;BME280;8878;-33.370;-70.552;2022-12-20T02:15:45;92203.28;;;24.82;36.41
17521;BME280;8878;-33.370;-70.552;2022-12-20T02:18:21;92195.97;;;24.82;36.12
17521;BME280;8878;-33.370;-70.552;2022-12-20T02:21:07;92199.75;;;24.62;38.68
17521;BME280;8878;-33.370;-70.552;2022-12-20T02:24:02;92203.34;;;24.50;38.65
17521;BME280;8878;-33.370;-70.552;2022-12-20T02:29:35;92203.41;;;24.54;38.55
17521;BME280;8878;-33.370;-70.552;2022-12-20T02:32:13;92206.38;;;24.49;37.80
17521;BME280;8878;-33.370;-70.552;2022-12-20T02:34:45;92207.34;;;24.56;36.59
17521;BME280;8878;-33.370;-70.552;2022-12-20T02:37:15;92210.47;;;24.43;37.55
17521;BME280;8878;-33.370;-70.552;2022-12-20T02:39:45;92200.94;;;24.30;38.54
17521;BME280;8878;-33.370;-70.552;2022-12-20T02:42:20;92203.91;;;23.97;36.62
17521;BME280;8878;-33.370;-70.552;2022-12-20T02:44:53;92210.88;;;24.13;38.31
17521;BME280;8878;-33.370;-70.552;2022-12-20T02:47:50;92203.66;;;24.17;39.51
17521;BME280;8878;-33.370;-70.552;2022-12-20T02:50:23;92203.81;;;24.09;38.55
17521;BME280;8878;-33.370;-70.552;2022-12-20T02:52:55;92207.31;;;23.94;39.95
17521;BME280;8878;-33.370;-70.552;2022-12-20T02:55:32;92211.63;;;23.83;40.19
17521;BME280;8878;-33.370;-70.552;2022-12-20T02:58:11;92205.56;;;23.86;39.63
17521;BME280;8878;-33.370;-70.552;2022-12-20T03:00:47;92204.06;;;23.88;39.57
17521;BME280;8878;-33.370;-70.552;2022-12-20T03:03:20;92202.72;;;23.94;39.88
17521;BME280;8878;-33.370;-70.552;2022-12-20T03:05:54;92204.97;;;23.92;39.59
17521;BME280;8878;-33.370;-70.552;2022-12-20T03:08:24;92207.28;;;23.78;39.67
17521;BME280;8878;-33.370;-70.552;2022-12-20T03:10:54;92214.09;;;23.60;39.33
17521;BME280;8878;-33.370;-70.552;2022-12-20T03:13:24;92210.28;;;23.61;39.38
17521;BME280;8878;-33.370;-70.552;2022-12-20T03:15:54;92207.59;;;23.61;40.38
17521;BME280;8878;-33.370;-70.552;2022-12-20T03:18:25;92211.69;;;23.42;40.53
17521;BME280;8878;-33.370;-70.552;2022-12-20T03:20:55;92209.00;;;23.42;40.92
17521;BME280;8878;-33.370;-70.552;2022-12-20T03:23:24;92207.44;;;23.41;40.11
17521;BME280;8878;-33.370;-70.552;2022-12-20T03:25:54;92213.47;;;23.38;40.69
17521;BME280;8878;-33.370;-70.552;2022-12-20T03:28:23;92215.94;;;23.43;39.24
17521;BME280;8878;-33.370;-70.552;2022-12-20T03:30:53;92210.13;;;23.41;39.99
17521;BME280;8878;-33.370;-70.552;2022-12-20T03:33:24;92207.47;;;23.29;40.87
17521;BME280;8878;-33.370;-70.552;2022-12-20T03:35:53;92212.16;;;23.32;40.10
17521;BME280;8878;-33.370;-70.552;2022-12-20T03:38:23;92212.38;;;22.99;39.52
17521;BME280;8878;-33.370;-70.552;2022-12-20T03:40:52;92216.91;;;22.83;39.87
17521;BME280;8878;-33.370;-70.552;2022-12-20T03:43:22;92225.41;;;22.61;39.83
17521;BME280;8878;-33.370;-70.552;2022-12-20T03:45:52;92226.78;;;22.79;38.58
17521;BME280;8878;-33.370;-70.552;2022-12-20T03:48:24;92224.84;;;22.92;38.19
17521;BME280;8878;-33.370;-70.552;2022-12-20T03:50:53;92222.38;;;22.99;37.87
17521;BME280;8878;-33.370;-70.552;2022-12-20T03:53:23;92238.19;;;22.15;38.12
17521;BME280;8878;-33.370;-70.552;2022-12-20T03:55:52;92226.84;;;22.10;38.33
17521;BME280;8878;-33.370;-70.552;2022-12-20T03:58:22;92234.22;;;21.35;39.51
17521;BME280;8878;-33.370;-70.552;2022-12-20T04:00:52;92233.84;;;21.45;39.85
17521;BME280;8878;-33.370;-70.552;2022-12-20T04:03:21;92234.84;;;21.85;39.02
17521;BME280;8878;-33.370;-70.552;2022-12-20T04:05:53;92228.03;;;21.55;38.46
17521;BME280;8878;-33.370;-70.552;2022-12-20T04:08:22;92230.75;;;21.67;38.81
17521;BME280;8878;-33.370;-70.552;2022-12-20T04:10:51;92231.78;;;22.32;37.91
17521;BME280;8878;-33.370;-70.552;2022-12-20T04:13:50;92229.00;;;22.41;38.68
17521;BME280;8878;-33.370;-70.552;2022-12-20T04:16:21;92223.53;;;22.49;38.46
17521;BME280;8878;-33.370;-70.552;2022-12-20T04:18:51;92223.28;;;22.42;37.66
17521;BME280;8878;-33.370;-70.552;2022-12-20T04:21:24;92213.19;;;22.63;37.32
17521;BME280;8878;-33.370;-70.552;2022-12-20T04:23:56;92223.19;;;22.87;37.25
17521;BME280;8878;-33.370;-70.552;2022-12-20T04:26:26;92221.94;;;22.85;37.88
17521;BME280;8878;-33.370;-70.552;2022-12-20T04:28:56;92219.78;;;22.90;37.55
17521;BME280;8878;-33.370;-70.552;2022-12-20T04:31:25;92228.78;;;22.34;38.41
17521;BME280;8878;-33.370;-70.552;2022-12-20T04:33:55;92223.28;;;22.42;38.73
17521;BME280;8878;-33.370;-70.552;2022-12-20T04:36:27;92215.22;;;22.42;39.30
17521;BME280;8878;-33.370;-70.552;2022-12-20T04:38:57;92223.28;;;22.54;39.41
17521;BME280;8878;-33.370;-70.552;2022-12-20T04:41:26;92219.91;;;22.45;40.22
17521;BME280;8878;-33.370;-70.552;2022-12-20T04:43:57;92215.66;;;22.56;38.96
17521;BME280;8878;-33.370;-70.552;2022-12-20T04:46:26;92219.72;;;22.50;39.31
17521;BME280;8878;-33.370;-70.552;2022-12-20T04:48:56;92229.78;;;22.29;40.87
17521;BME280;8878;-33.370;-70.552;2022-12-20T04:51:27;92218.81;;;22.34;40.21
17521;BME280;8878;-33.370;-70.552;2022-12-20T04:53:57;92219.28;;;22.36;40.22
17521;BME280;8878;-33.370;-70.552;2022-12-20T04:56:26;92223.06;;;22.35;40.33
17521;BME280;8878;-33.370;-70.552;2022-12-20T04:58:57;92221.81;;;22.33;40.72
17521;BME280;8878;-33.370;-70.552;2022-12-20T05:01:26;92227.75;;;22.14;40.83
17521;BME280;8878;-33.370;-70.552;2022-12-20T05:03:56;92218.78;;;22.10;40.69
17521;BME280;8878;-33.370;-70.552;2022-12-20T05:06:27;92225.16;;;22.05;40.25
17521;BME280;8878;-33.370;-70.552;2022-12-20T05:08:56;92214.97;;;22.11;40.45
17521;BME280;8878;-33.370;-70.552;2022-12-20T05:11:26;92213.88;;;22.00;40.81
17521;BME280;8878;-33.370;-70.552;2022-12-20T05:13:56;92199.00;;;22.02;40.63
17521;BME280;8878;-33.370;-70.552;2022-12-20T05:16:26;92192.38;;;22.12;39.77
17521;BME280;8878;-33.370;-70.552;2022-12-20T05:18:55;92199.69;;;22.23;40.32
17521;BME280;8878;-33.370;-70.552;2022-12-20T05:21:26;92188.56;;;22.25;40.18
17521;BME280;8878;-33.370;-70.552;2022-12-20T05:24:14;92182.31;;;22.21;39.74
17521;BME280;8878;-33.370;-70.552;2022-12-20T05:27:01;92177.38;;;21.99;39.45
17521;BME280;8878;-33.370;-70.552;2022-12-20T05:29:30;92181.00;;;21.82;39.40
17521;BME280;8878;-33.370;-70.552;2022-12-20T05:32:01;92176.63;;;21.65;39.93
17521;BME280;8878;-33.370;-70.552;2022-12-20T05:34:30;92176.72;;;21.69;39.87
17521;BME280;8878;-33.370;-70.552;2022-12-20T05:37:01;92175.38;;;21.63;40.17
17521;BME280;8878;-33.370;-70.552;2022-12-20T05:39:30;92183.34;;;21.59;40.19
17521;BME280;8878;-33.370;-70.552;2022-12-20T05:42:00;92184.25;;;21.75;41.42
17521;BME280;8878;-33.370;-70.552;2022-12-20T05:44:29;92190.44;;;21.88;41.23
17521;BME280;8878;-33.370;-70.552;2022-12-20T05:46:59;92179.47;;;21.93;40.13
17521;BME280;8878;-33.370;-70.552;2022-12-20T05:49:28;92175.06;;;21.88;40.07
17521;BME280;8878;-33.370;-70.552;2022-12-20T05:51:58;92171.53;;;21.97;40.21
17521;BME280;8878;-33.370;-70.552;2022-12-20T05:54:29;92170.00;;;22.08;39.82
17521;BME280;8878;-33.370;-70.552;2022-12-20T05:56:58;92174.69;;;21.99;39.62
17521;BME280;8878;-33.370;-70.552;2022-12-20T05:59:27;92177.00;;;21.31;40.66
17521;BME280;8878;-33.370;-70.552;2022-12-20T06:01:57;92179.22;;;21.29;40.84
17521;BME280;8878;-33.370;-70.552;2022-12-20T06:04:26;92176.69;;;21.44;40.73
17521;BME280;8878;-33.370;-70.552;2022-12-20T06:06:56;92184.34;;;21.67;41.59
17521;BME280;8878;-33.370;-70.552;2022-12-20T06:09:28;92176.47;;;21.49;42.85
17521;BME280;8878;-33.370;-70.552;2022-12-20T06:11:57;92179.38;;;21.44;42.94
17521;BME280;8878;-33.370;-70.552;2022-12-20T06:14:27;92172.91;;;21.45;43.84
17521;BME280;8878;-33.370;-70.552;2022-12-20T06:16:56;92174.56;;;21.50;43.58
17521;BME280;8878;-33.370;-70.552;2022-12-20T06:19:26;92182.84;;;21.45;42.04
17521;BME280;8878;-33.370;-70.552;2022-12-20T06:21:55;92179.47;;;21.36;41.80
17521;BME280;8878;-33.370;-70.552;2022-12-20T06:24:28;92174.13;;;20.74;42.14
17521;BME280;8878;-33.370;-70.552;2022-12-20T06:26:58;92174.56;;;20.96;40.89
17521;BME280;8878;-33.370;-70.552;2022-12-20T06:29:27;92175.69;;;21.16;42.69
17521;BME280;8878;-33.370;-70.552;2022-12-20T06:31:56;92173.59;;;21.22;44.28
17521;BME280;8878;-33.370;-70.552;2022-12-20T06:34:26;92166.53;;;21.17;44.79
17521;BME280;8878;-33.370;-70.552;2022-12-20T06:36:55;92162.78;;;21.09;43.17
17521;BME280;8878;-33.370;-70.552;2022-12-20T06:39:24;92162.56;;;21.15;42.48
17521;BME280;8878;-33.370;-70.552;2022-12-20T06:41:56;92160.19;;;21.22;43.67
17521;BME280;8878;-33.370;-70.552;2022-12-20T06:44:25;92168.28;;;21.13;43.04
17521;BME280;8878;-33.370;-70.552;2022-12-20T06:46:56;92174.06;;;21.03;42.81
17521;BME280;8878;-33.370;-70.552;2022-12-20T06:49:25;92160.72;;;20.94;44.05
17521;BME280;8878;-33.370;-70.552;2022-12-20T06:51:55;92169.41;;;20.91;43.82
17521;BME280;8878;-33.370;-70.552;2022-12-20T06:54:25;92163.31;;;20.82;44.36
17521;BME280;8878;-33.370;-70.552;2022-12-20T06:56:56;92169.41;;;20.91;43.91
17521;BME280;8878;-33.370;-70.552;2022-12-20T06:59:25;92168.03;;;20.85;43.99
17521;BME280;8878;-33.370;-70.552;2022-12-20T07:01:54;92165.63;;;20.71;45.46
17521;BME280;8878;-33.370;-70.552;2022-12-20T07:04:25;92165.41;;;20.56;43.30
17521;BME280;8878;-33.370;-70.552;2022-12-20T07:06:54;92165.47;;;20.68;43.15
17521;BME280;8878;-33.370;-70.552;2022-12-20T07:09:24;92176.03;;;20.73;44.64
17521;BME280;8878;-33.370;-70.552;2022-12-20T07:11:56;92177.41;;;20.79;44.88
17521;BME280;8878;-33.370;-70.552;2022-12-20T07:14:25;92177.97;;;20.85;44.04
17521;BME280;8878;-33.370;-70.552;2022-12-20T07:16:55;92190.38;;;20.89;42.97
17521;BME280;8878;-33.370;-70.552;2022-12-20T07:19:24;92182.50;;;20.93;42.91
17521;BME280;8878;-33.370;-70.552;2022-12-20T07:21:54;92177.13;;;20.72;44.54
17521;BME280;8878;-33.370;-70.552;2022-12-20T07:24:23;92169.09;;;20.72;43.69
17521;BME280;8878;-33.370;-70.552;2022-12-20T07:26:52;92166.09;;;20.53;42.83
17521;BME280;8878;-33.370;-70.552;2022-12-20T07:29:24;92176.72;;;20.61;43.12
17521;BME280;8878;-33.370;-70.552;2022-12-20T07:31:53;92179.41;;;20.61;44.68
17521;BME280;8878;-33.370;-70.552;2022-12-20T07:34:23;92176.38;;;20.42;45.25
17521;BME280;8878;-33.370;-70.552;2022-12-20T07:36:53;92171.84;;;20.34;44.10
17521;BME280;8878;-33.370;-70.552;2022-12-20T07:39:22;92166.41;;;20.51;44.88
17521;BME280;8878;-33.370;-70.552;2022-12-20T07:41:53;92159.19;;;20.14;44.30
17521;BME280;8878;-33.370;-70.552;2022-12-20T07:44:24;92151.63;;;19.78;44.49
17521;BME280;8878;-33.370;-70.552;2022-12-20T07:46:53;92148.38;;;19.64;45.00
17521;BME280;8878;-33.370;-70.552;2022-12-20T07:49:23;92156.94;;;19.48;45.50
17521;BME280;8878;-33.370;-70.552;2022-12-20T07:51:54;92155.81;;;19.58;45.22
17521;BME280;8878;-33.370;-70.552;2022-12-20T07:54:27;92153.31;;;19.53;45.40
17521;BME280;8878;-33.370;-70.552;2022-12-20T07:57:00;92161.66;;;19.51;45.34
17521;BME280;8878;-33.370;-70.552;2022-12-20T07:59:36;92165.25;;;19.55;45.28
17521;BME280;8878;-33.370;-70.552;2022-12-20T08:02:08;92173.81;;;19.87;44.67
17521;BME280;8878;-33.370;-70.552;2022-12-20T08:04:41;92171.88;;;19.96;44.23
17521;BME280;8878;-33.370;-70.552;2022-12-20T08:07:11;92193.22;;;19.75;43.40
17521;BME280;8878;-33.370;-70.552;2022-12-20T08:09:41;92188.09;;;19.44;43.83
17521;BME280;8878;-33.370;-70.552;2022-12-20T08:12:13;92204.16;;;19.18;44.13
17521;BME280;8878;-33.370;-70.552;2022-12-20T08:14:47;92200.84;;;19.56;43.79
17521;BME280;8878;-33.370;-70.552;2022-12-20T08:17:18;92202.88;;;19.68;43.01
17521;BME280;8878;-33.370;-70.552;2022-12-20T08:19:47;92203.06;;;19.28;44.07
17521;BME280;8878;-33.370;-70.552;2022-12-20T08:22:17;92209.09;;;18.82;45.38
17521;BME280;8878;-33.370;-70.552;2022-12-20T08:24:47;92203.41;;;19.01;45.30
17521;BME280;8878;-33.370;-70.552;2022-12-20T08:27:16;92198.16;;;19.47;44.45
17521;BME280;8878;-33.370;-70.552;2022-12-20T08:29:48;92185.84;;;19.72;46.23
17521;BME280;8878;-33.370;-70.552;2022-12-20T08:32:17;92183.16;;;19.72;45.04
17521;BME280;8878;-33.370;-70.552;2022-12-20T08:34:47;92177.09;;;19.37;45.46
17521;BME280;8878;-33.370;-70.552;2022-12-20T08:37:16;92179.22;;;18.89;47.15
17521;BME280;8878;-33.370;-70.552;2022-12-20T08:39:46;92177.00;;;18.82;46.60
17521;BME280;8878;-33.370;-70.552;2022-12-20T08:42:15;92171.94;;;19.15;46.44
17521;BME280;8878;-33.370;-70.552;2022-12-20T08:44:46;92171.47;;;19.13;46.37
17521;BME280;8878;-33.370;-70.552;2022-12-20T08:47:16;92163.13;;;19.23;46.20
17521;BME280;8878;-33.370;-70.552;2022-12-20T08:49:45;92164.53;;;19.29;46.27
17521;BME280;8878;-33.370;-70.552;2022-12-20T08:52:15;92150.47;;;19.49;45.78
17521;BME280;8878;-33.370;-70.552;2022-12-20T08:54:44;92155.81;;;19.41;45.58
17521;BME280;8878;-33.370;-70.552;2022-12-20T08:57:13;92154.88;;;19.54;44.89
17521;BME280;8878;-33.370;-70.552;2022-12-20T08:59:43;92182.88;;;19.65;44.33
17521;BME280;8878;-33.370;-70.552;2022-12-20T09:02:14;92199.78;;;18.62;45.32
17521;BME280;8878;-33.370;-70.552;2022-12-20T09:04:45;92195.91;;;18.20;46.03
17521;BME280;8878;-33.370;-70.552;2022-12-20T09:07:14;92189.13;;;18.88;45.13
17521;BME280;8878;-33.370;-70.552;2022-12-20T09:09:43;92196.50;;;19.08;44.37
17521;BME280;8878;-33.370;-70.552;2022-12-20T09:12:15;92197.59;;;18.82;45.49
17521;BME280;8878;-33.370;-70.552;2022-12-20T09:14:44;92195.56;;;18.87;45.15
17521;BME280;8878;-33.370;-70.552;2022-12-20T09:17:16;92199.00;;;18.70;46.06
17521;BME280;8878;-33.370;-70.552;2022-12-20T09:19:45;92202.44;;;19.31;44.64
17521;BME280;8878;-33.370;-70.552;2022-12-20T09:22:14;92201.22;;;18.94;44.99
17521;BME280;8878;-33.370;-70.552;2022-12-20T09:24:43;92208.94;;;18.96;45.09
17521;BME280;8878;-33.370;-70.552;2022-12-20T09:27:13;92210.66;;;19.09;44.96
17521;BME280;8878;-33.370;-70.552;2022-12-20T09:29:42;92214.25;;;19.04;46.04
17521;BME280;8878;-33.370;-70.552;2022-12-20T09:32:11;92211.59;;;18.96;45.92
17521;BME280;8878;-33.370;-70.552;2022-12-20T09:34:42;92227.94;;;19.11;45.26
17521;BME280;8878;-33.370;-70.552;2022-12-20T09:37:13;92232.34;;;18.99;45.04
17521;BME280;8878;-33.370;-70.552;2022-12-20T09:39:42;92224.94;;;19.30;44.70
17521;BME280;8878;-33.370;-70.552;2022-12-20T09:42:14;92222.22;;;19.65;44.16
17521;BME280;8878;-33.370;-70.552;2022-12-20T09:44:43;92214.75;;;19.87;43.76
17521;BME280;8878;-33.370;-70.552;2022-12-20T09:47:15;92223.56;;;19.88;43.91
17521;BME280;8878;-33.370;-70.552;2022-12-20T09:49:50;92229.81;;;19.37;45.03
17521;BME280;8878;-33.370;-70.552;2022-12-20T09:52:30;92233.94;;;19.17;45.51
17521;BME280;8878;-33.370;-70.552;2022-12-20T09:55:11;92245.69;;;19.59;44.53
17521;BME280;8878;-33.370;-70.552;2022-12-20T09:57:52;92238.56;;;19.80;46.22
17521;BME280;8878;-33.370;-70.552;2022-12-20T10:00:25;92238.06;;;19.87;45.28
17521;BME280;8878;-33.370;-70.552;2022-12-20T10:02:56;92245.03;;;19.62;45.30
17521;BME280;8878;-33.370;-70.552;2022-12-20T10:05:32;92255.94;;;19.31;44.96
17521;BME280;8878;-33.370;-70.552;2022-12-20T10:08:10;92251.84;;;19.60;45.81
17521;BME280;8878;-33.370;-70.552;2022-12-20T10:10:53;92248.47;;;19.80;45.90
17521;BME280;8878;-33.370;-70.552;2022-12-20T10:13:50;92255.34;;;19.98;45.82
17521;BME280;8878;-33.370;-70.552;2022-12-20T10:16:34;92250.78;;;19.90;47.01
17521;BME280;8878;-33.370;-70.552;2022-12-20T10:19:20;92256.09;;;19.61;46.43
17521;BME280;8878;-33.370;-70.552;2022-12-20T10:22:04;92262.66;;;19.80;47.10
17521;BME280;8878;-33.370;-70.552;2022-12-20T10:24:35;92269.09;;;19.88;46.97
17521;BME280;8878;-33.370;-70.552;2022-12-20T10:27:11;92255.84;;;19.83;46.19
17521;BME280;8878;-33.370;-70.552;2022-12-20T10:29:42;92253.66;;;19.85;47.23
17521;BME280;8878;-33.370;-70.552;2022-12-20T10:32:14;92239.44;;;20.02;46.26
17521;BME280;8878;-33.370;-70.552;2022-12-20T10:34:51;92249.06;;;19.94;45.76
17521;BME280;8878;-33.370;-70.552;2022-12-20T10:37:25;92253.09;;;20.17;45.27
17521;BME280;8878;-33.370;-70.552;2022-12-20T10:39:54;92245.13;;;20.38;44.77
17521;BME280;8878;-33.370;-70.552;2022-12-20T10:42:27;92241.84;;;20.62;44.71
17521;BME280;8878;-33.370;-70.552;2022-12-20T10:44:58;92245.31;;;20.62;44.43
17521;BME280;8878;-33.370;-70.552;2022-12-20T10:47:37;92237.47;;;20.57;44.18
17521;BME280;8878;-33.370;-70.552;2022-12-20T11:18:44;92264.19;;;21.91;41.64
17521;BME280;8878;-33.370;-70.552;2022-12-20T11:21:25;92261.50;;;21.58;41.68
17521;BME280;8878;-33.370;-70.552;2022-12-20T11:24:05;92266.44;;;21.35;42.15
17521;BME280;8878;-33.370;-70.552;2022-12-20T11:26:45;92269.75;;;21.11;42.68
17521;BME280;8878;-33.370;-70.552;2022-12-20T11:29:33;92263.88;;;21.18;42.49
17521;BME280;8878;-33.370;-70.552;2022-12-20T11:32:09;92272.81;;;21.63;42.20
17521;BME280;8878;-33.370;-70.552;2022-12-20T11:34:51;92272.00;;;21.83;40.80
17521;BME280;8878;-33.370;-70.552;2022-12-20T11:37:27;92265.84;;;21.83;41.31
17521;BME280;8878;-33.370;-70.552;2022-12-20T11:40:15;92275.56;;;22.08;40.11
17521;BME280;8878;-33.370;-70.552;2022-12-20T11:43:05;92283.75;;;22.24;39.53
17521;BME280;8878;-33.370;-70.552;2022-12-20T11:45:46;92263.75;;;22.58;39.35
17521;BME280;8878;-33.370;-70.552;2022-12-20T11:48:41;92271.03;;;22.57;39.60
17521;BME280;8878;-33.370;-70.552;2022-12-20T11:51:21;92264.72;;;22.53;39.58
17521;BME280;8878;-33.370;-70.552;2022-12-20T11:53:55;92274.63;;;22.74;39.29
17521;BME280;8878;-33.370;-70.552;2022-12-20T11:56:29;92264.28;;;22.63;39.89
17521;BME280;8878;-33.370;-70.552;2022-12-20T11:59:04;92265.19;;;22.92;38.69
17521;BME280;8878;-33.370;-70.552;2022-12-20T12:01:39;92263.03;;;23.22;38.84
17521;BME280;8878;-33.370;-70.552;2022-12-20T12:04:13;92262.28;;;23.49;37.70
17521;BME280;8878;-33.370;-70.552;2022-12-20T12:06:47;92267.75;;;23.53;38.08
17521;BME280;8878;-33.370;-70.552;2022-12-20T12:09:23;92264.25;;;23.64;37.89
17521;BME280;8878;-33.370;-70.552;2022-12-20T12:12:02;92261.16;;;23.78;37.88
17521;BME280;8878;-33.370;-70.552;2022-12-20T12:14:41;92258.59;;;23.97;37.00
17521;BME280;8878;-33.370;-70.552;2022-12-20T12:17:18;92260.78;;;24.07;37.01
17521;BME280;8878;-33.370;-70.552;2022-12-20T12:19:50;92240.34;;;24.06;37.52
17521;BME280;8878;-33.370;-70.552;2022-12-20T12:22:28;92255.88;;;24.25;37.16
17521;BME280;8878;-33.370;-70.552;2022-12-20T12:25:05;92248.75;;;24.33;37.23
17521;BME280;8878;-33.370;-70.552;2022-12-20T12:27:39;92254.28;;;24.08;37.19
17521;BME280;8878;-33.370;-70.552;2022-12-20T12:30:13;92250.63;;;24.01;37.42
17521;BME280;8878;-33.370;-70.552;2022-12-20T12:32:48;92258.03;;;23.76;38.89
17521;BME280;8878;-33.370;-70.552;2022-12-20T12:35:50;92247.19;;;23.60;37.96
17521;BME280;8878;-33.370;-70.552;2022-12-20T12:41:55;92255.25;;;23.72;38.43
17521;BME280;8878;-33.370;-70.552;2022-12-20T12:44:35;92257.00;;;23.53;38.14
17521;BME280;8878;-33.370;-70.552;2022-12-20T12:47:11;92251.38;;;23.86;38.20
17521;BME280;8878;-33.370;-70.552;2022-12-20T12:49:47;92249.16;;;24.19;37.24
17521;BME280;8878;-33.370;-70.552;2022-12-20T12:52:36;92248.50;;;23.66;38.47
17521;BME280;8878;-33.370;-70.552;2022-12-20T12:55:37;92253.28;;;23.85;38.21
17521;BME280;8878;-33.370;-70.552;2022-12-20T12:58:31;92254.81;;;23.70;38.47
17521;BME280;8878;-33.370;-70.552;2022-12-20T13:01:03;92258.94;;;23.68;38.29
17521;BME280;8878;-33.370;-70.552;2022-12-20T13:03:40;92247.81;;;23.97;37.36
17521;BME280;8878;-33.370;-70.552;2022-12-20T13:09:34;92238.34;;;24.19;37.00
17521;BME280;8878;-33.370;-70.552;2022-12-20T13:16:03;92243.44;;;24.21;37.55
17521;BME280;8878;-33.370;-70.552;2022-12-20T13:18:34;92247.91;;;24.16;36.62
17521;BME280;8878;-33.370;-70.552;2022-12-20T13:21:29;92246.16;;;24.36;37.59
17521;BME280;8878;-33.370;-70.552;2022-12-20T13:27:32;92240.81;;;24.40;37.13
17521;BME280;8878;-33.370;-70.552;2022-12-20T13:30:24;92245.94;;;24.45;37.87
17521;BME280;8878;-33.370;-70.552;2022-12-20T13:35:58;92241.88;;;24.19;38.04
17521;BME280;8878;-33.370;-70.552;2022-12-20T13:38:35;92235.94;;;24.61;37.85
17521;BME280;8878;-33.370;-70.552;2022-12-20T13:41:16;92237.50;;;24.31;37.07
17521;BME280;8878;-33.370;-70.552;2022-12-20T13:43:49;92240.41;;;24.88;36.02
17521;BME280;8878;-33.370;-70.552;2022-12-20T13:46:23;92239.94;;;24.67;37.20
17521;BME280;8878;-33.370;-70.552;2022-12-20T13:48:57;92243.09;;;24.38;37.04
17521;BME280;8878;-33.370;-70.552;2022-12-20T13:51:30;92249.00;;;24.28;37.06
17521;BME280;8878;-33.370;-70.552;2022-12-20T13:54:16;92249.97;;;24.35;37.29
17521;BME280;8878;-33.370;-70.552;2022-12-20T13:56:48;92254.16;;;24.48;37.68
17521;BME280;8878;-33.370;-70.552;2022-12-20T13:59:23;92258.91;;;24.86;36.86